Portada
METAR-TAF:

METAR-TAF

Aeroports :

Angers, França

latitud: 47-33-37N, longitud: 000-18-44W, altitud: 59 m

Observació

L'informe es va fer fa 37 minuts, a les 13:00 UTC
Vent 14 kt del Nord-Oest, variant entre Oest i Nord/Nord-Oest
Temperatura 12°C
Humitat 58%
Pressió 1018 hPa
Visibilitat 10 km o més
Cel ennuvolat a una alçada de 3700 ft
Cel cobert a una alçada de 4500 ft

METAR: LFJR 091300Z AUTO 31014KT 270V340 9999 BKN037 OVC045 12/04 Q1018

Hora: 14:37 (13:37 UTC)


TAF: manca

Observacions i pronòstics meteorològics de més de 4000 aeroports (METAR i TAF).

Les estacions disponibles són els punts grocs i vermells al mapa.

Posi el ratolí al punt desitjat per veure el nom de l'estació.

Feu clic per veure les observacions i els pronòstics meteorològics.

Per canviar el mapa: feu clic els botons verds amb una creu de color negre per apropar; al botó verd amb un guió per allunyar la imatge; o en les fletxes verdes per a mapes adjacents.


METAR-TAF: